createdAt,value
2019-01-21T00:00:47.201Z,0.00
2019-01-21T00:01:47.341Z,0.00
2019-01-21T00:02:47.517Z,0.00
2019-01-21T00:03:47.696Z,0.00
2019-01-21T00:04:47.866Z,0.00
2019-01-21T00:05:48.038Z,0.00
2019-01-21T00:06:48.210Z,0.00
2019-01-21T00:07:48.387Z,0.00
2019-01-21T00:08:48.569Z,0.00
2019-01-21T00:09:48.742Z,0.00
2019-01-21T00:10:48.926Z,0.00
2019-01-21T00:11:49.098Z,0.00
2019-01-21T00:12:49.276Z,0.00
2019-01-21T00:13:49.452Z,0.00
2019-01-21T00:14:49.625Z,0.00
2019-01-21T00:15:49.877Z,0.00
2019-01-21T00:16:49.974Z,0.00
2019-01-21T00:17:50.150Z,0.00
2019-01-21T00:18:50.336Z,0.00
2019-01-21T00:19:50.515Z,0.00
2019-01-21T00:20:50.688Z,0.00
2019-01-21T00:21:50.863Z,0.00
2019-01-21T00:22:51.041Z,0.00
2019-01-21T00:23:51.216Z,0.00
2019-01-21T00:24:51.395Z,0.00
2019-01-21T00:25:51.567Z,0.00
2019-01-21T00:26:51.746Z,0.00
2019-01-21T00:27:51.924Z,0.00
2019-01-21T00:28:52.104Z,0.00
2019-01-21T00:29:52.279Z,0.00
2019-01-21T00:30:52.458Z,0.00
2019-01-21T00:31:52.632Z,0.00
2019-01-21T00:32:52.808Z,0.00
2019-01-21T00:33:52.987Z,0.00
2019-01-21T00:34:53.167Z,0.00
2019-01-21T00:35:53.334Z,0.00
2019-01-21T00:36:53.507Z,0.00
2019-01-21T00:37:53.688Z,0.00
2019-01-21T00:38:53.860Z,0.00
2019-01-21T00:39:54.037Z,0.00
2019-01-21T00:40:54.212Z,0.00
2019-01-21T00:41:54.386Z,0.00
2019-01-21T00:42:54.561Z,0.00
2019-01-21T00:43:54.734Z,0.00
2019-01-21T00:44:54.910Z,0.00
2019-01-21T00:45:55.085Z,0.00
2019-01-21T00:46:55.261Z,0.00
2019-01-21T00:47:55.432Z,0.00
2019-01-21T00:48:55.606Z,0.00
2019-01-21T00:49:55.783Z,0.00
2019-01-21T00:50:55.961Z,0.00
2019-01-21T00:51:56.134Z,0.00
2019-01-21T00:52:56.312Z,0.00
2019-01-21T00:53:56.481Z,0.00
2019-01-21T00:54:56.665Z,0.00
2019-01-21T00:55:56.836Z,0.00
2019-01-21T00:56:57.014Z,0.00
2019-01-21T00:57:57.196Z,0.00
2019-01-21T00:58:57.365Z,0.00
2019-01-21T00:59:57.546Z,0.00
2019-01-21T01:00:57.725Z,0.00
2019-01-21T01:01:57.901Z,0.00
2019-01-21T01:02:58.074Z,0.00
2019-01-21T01:03:58.259Z,0.00
2019-01-21T01:04:58.434Z,0.00
2019-01-21T01:05:58.610Z,0.00
2019-01-21T01:06:58.785Z,0.00
2019-01-21T01:07:58.952Z,0.00
2019-01-21T01:08:59.128Z,0.00
2019-01-21T01:09:59.310Z,0.00
2019-01-21T01:10:59.479Z,0.00
2019-01-21T01:11:59.654Z,0.00
2019-01-21T01:12:59.831Z,0.00
2019-01-21T01:14:00.007Z,0.00
2019-01-21T01:15:00.200Z,0.00
2019-01-21T01:16:00.356Z,0.00
2019-01-21T01:17:00.528Z,0.00
2019-01-21T01:18:00.703Z,0.00
2019-01-21T01:19:00.880Z,0.00
2019-01-21T01:20:01.050Z,0.00
2019-01-21T01:21:01.234Z,0.00
2019-01-21T01:22:01.409Z,0.00
2019-01-21T01:23:01.582Z,0.00
2019-01-21T01:24:01.760Z,0.00
2019-01-21T01:25:01.944Z,0.00
2019-01-21T01:26:02.118Z,0.00
2019-01-21T01:27:02.282Z,0.00
2019-01-21T01:28:02.460Z,0.00
2019-01-21T01:29:02.626Z,0.00
2019-01-21T01:30:02.797Z,0.00
2019-01-21T01:31:02.972Z,0.00
2019-01-21T01:32:03.148Z,0.00
2019-01-21T01:33:03.320Z,0.00
2019-01-21T01:34:03.498Z,0.00
2019-01-21T01:35:03.670Z,0.00
2019-01-21T01:36:03.847Z,0.00
2019-01-21T01:37:04.019Z,0.00
2019-01-21T01:38:04.197Z,0.00
2019-01-21T01:39:04.375Z,0.00
2019-01-21T01:40:04.547Z,0.00
2019-01-21T01:41:04.723Z,0.00
2019-01-21T01:42:04.896Z,0.00
2019-01-21T01:43:05.073Z,0.00
2019-01-21T01:44:05.245Z,0.00
2019-01-21T01:45:05.414Z,0.00
2019-01-21T01:46:05.593Z,0.00
2019-01-21T01:47:05.763Z,0.00
2019-01-21T01:48:05.937Z,0.00
2019-01-21T01:49:06.115Z,0.00
2019-01-21T01:50:06.295Z,0.00
2019-01-21T01:51:06.460Z,0.00
2019-01-21T01:52:06.643Z,0.00
2019-01-21T01:53:06.813Z,0.00
2019-01-21T01:54:06.986Z,0.00
2019-01-21T01:55:07.160Z,0.00
2019-01-21T01:56:07.331Z,0.00
2019-01-21T01:57:07.505Z,0.00
2019-01-21T01:58:07.677Z,0.00
2019-01-21T01:59:07.856Z,0.00
2019-01-21T02:00:08.027Z,0.00
2019-01-21T02:01:08.202Z,0.00
2019-01-21T02:02:08.373Z,0.00
2019-01-21T02:03:08.549Z,0.00
2019-01-21T02:04:08.732Z,0.00
2019-01-21T02:05:08.914Z,0.00
2019-01-21T02:06:09.088Z,0.00
2019-01-21T02:07:09.261Z,0.00
2019-01-21T02:08:09.437Z,0.00
2019-01-21T02:09:09.609Z,0.00
2019-01-21T02:10:09.787Z,0.00
2019-01-21T02:11:09.965Z,0.00
2019-01-21T02:12:10.134Z,0.00
2019-01-21T02:13:10.304Z,0.00
2019-01-21T02:14:10.488Z,0.00
2019-01-21T02:15:10.655Z,0.00
2019-01-21T02:16:10.831Z,0.00
2019-01-21T02:17:10.997Z,0.00
2019-01-21T02:18:11.174Z,0.00
2019-01-21T02:19:11.348Z,0.00
2019-01-21T02:20:11.523Z,0.00
2019-01-21T02:21:11.707Z,0.00
2019-01-21T02:22:11.879Z,0.00
2019-01-21T02:23:12.048Z,0.00
2019-01-21T02:24:12.218Z,0.00
2019-01-21T02:25:12.396Z,0.00
2019-01-21T02:26:12.569Z,0.00
2019-01-21T02:27:12.744Z,0.00
2019-01-21T02:28:12.918Z,0.00
2019-01-21T02:29:13.095Z,0.00
2019-01-21T02:30:13.266Z,0.00
2019-01-21T02:31:13.445Z,0.00
2019-01-21T02:32:13.622Z,0.00
2019-01-21T02:33:13.795Z,0.00
2019-01-21T02:34:13.982Z,0.00
2019-01-21T02:35:14.138Z,0.00
2019-01-21T02:36:14.316Z,0.00
2019-01-21T02:37:14.495Z,0.00
2019-01-21T02:38:14.662Z,0.00
2019-01-21T02:39:14.837Z,0.00
2019-01-21T02:40:15.010Z,0.00
2019-01-21T02:41:15.186Z,0.00
2019-01-21T02:42:15.350Z,0.00
2019-01-21T02:43:15.526Z,0.00
2019-01-21T02:44:15.705Z,0.00
2019-01-21T02:45:15.878Z,0.00
2019-01-21T02:46:16.062Z,0.00
2019-01-21T02:47:16.228Z,0.00
2019-01-21T02:48:16.398Z,0.00
2019-01-21T02:49:16.574Z,0.00
2019-01-21T02:50:16.759Z,0.00
2019-01-21T02:51:16.943Z,0.00
2019-01-21T02:52:17.107Z,0.00
2019-01-21T02:53:17.284Z,0.00
2019-01-21T02:54:17.455Z,0.00
2019-01-21T02:55:17.632Z,0.00
2019-01-21T02:56:17.810Z,0.00
2019-01-21T02:57:17.980Z,0.00
2019-01-21T02:58:18.158Z,0.00
2019-01-21T02:59:18.331Z,0.00
2019-01-21T03:00:18.509Z,0.00
2019-01-21T03:01:18.687Z,0.00
2019-01-21T03:02:18.856Z,0.00
2019-01-21T03:03:19.031Z,0.00
2019-01-21T03:04:19.206Z,0.00
2019-01-21T03:05:19.390Z,0.00
2019-01-21T03:06:19.559Z,0.00
2019-01-21T03:07:19.732Z,0.00
2019-01-21T03:08:19.903Z,0.00
2019-01-21T03:09:20.083Z,0.00
2019-01-21T03:10:20.257Z,0.00
2019-01-21T03:11:20.452Z,0.00
2019-01-21T03:12:20.594Z,0.00
2019-01-21T03:13:20.769Z,0.00
2019-01-21T03:14:20.939Z,0.00
2019-01-21T03:15:21.124Z,0.00
2019-01-21T03:16:21.287Z,0.00
2019-01-21T03:17:21.473Z,0.00
2019-01-21T03:18:21.655Z,0.00
2019-01-21T03:19:21.815Z,0.00
2019-01-21T03:20:21.984Z,0.00
2019-01-21T03:21:22.158Z,0.00
2019-01-21T03:22:22.338Z,0.00
2019-01-21T03:23:22.513Z,0.00
2019-01-21T03:24:22.702Z,0.00
2019-01-21T03:25:22.894Z,0.00
2019-01-21T03:26:23.048Z,0.00
2019-01-21T03:27:23.211Z,0.00
2019-01-21T03:28:23.392Z,0.00
2019-01-21T03:29:23.560Z,0.00
2019-01-21T03:30:23.733Z,0.00
2019-01-21T03:31:23.934Z,0.00
2019-01-21T03:32:24.089Z,0.00
2019-01-21T03:33:26.634Z,0.00
2019-01-21T03:34:24.438Z,0.00
2019-01-21T03:35:24.613Z,0.00
2019-01-21T03:36:24.784Z,0.00
2019-01-21T03:37:24.960Z,0.00
2019-01-21T03:38:25.120Z,0.00
2019-01-21T03:39:25.293Z,0.00
2019-01-21T03:40:25.480Z,0.00
2019-01-21T03:41:25.714Z,0.00
2019-01-21T03:42:25.926Z,0.00
2019-01-21T03:43:26.059Z,0.00
2019-01-21T03:44:26.232Z,0.00
2019-01-21T03:45:26.421Z,0.00
2019-01-21T03:46:26.600Z,0.00
2019-01-21T03:47:26.759Z,0.00
2019-01-21T03:48:26.932Z,0.00
2019-01-21T03:49:27.100Z,0.00
2019-01-21T03:50:27.268Z,0.00
2019-01-21T03:51:27.447Z,0.00
2019-01-21T03:52:27.613Z,0.00
2019-01-21T03:53:27.789Z,0.00
2019-01-21T03:54:27.955Z,0.00
2019-01-21T03:55:28.133Z,0.00
2019-01-21T03:56:28.329Z,0.00
2019-01-21T03:57:28.501Z,0.00
2019-01-21T03:58:28.686Z,0.00
2019-01-21T03:59:28.863Z,0.00
2019-01-21T04:00:29.035Z,0.00
2019-01-21T04:01:29.218Z,0.00
2019-01-21T04:02:29.395Z,0.00
2019-01-21T04:03:29.563Z,0.00
2019-01-21T04:04:29.739Z,0.00
2019-01-21T04:05:29.931Z,0.00
2019-01-21T04:06:30.098Z,0.00
2019-01-21T04:07:30.272Z,0.00
2019-01-21T04:08:30.435Z,0.00
2019-01-21T04:09:30.610Z,0.00
2019-01-21T04:10:30.784Z,0.00
2019-01-21T04:11:30.953Z,0.00
2019-01-21T04:12:31.126Z,0.00
2019-01-21T04:13:31.301Z,0.00
2019-01-21T04:14:31.483Z,0.00
2019-01-21T04:15:31.645Z,0.00
2019-01-21T04:16:31.816Z,0.00
2019-01-21T04:17:31.999Z,0.00
2019-01-21T04:18:32.159Z,0.00
2019-01-21T04:19:32.336Z,0.00
2019-01-21T04:20:32.507Z,0.00
2019-01-21T04:21:32.679Z,0.00
2019-01-21T04:22:32.852Z,0.00
2019-01-21T04:23:33.024Z,0.00
2019-01-21T04:24:33.204Z,0.00
2019-01-21T04:25:33.382Z,0.00
2019-01-21T04:26:33.594Z,0.00
2019-01-21T04:27:33.726Z,0.00
2019-01-21T04:28:33.902Z,0.00
2019-01-21T04:29:34.076Z,0.00
2019-01-21T04:30:34.251Z,0.00
2019-01-21T04:31:34.425Z,0.00
2019-01-21T04:32:34.593Z,0.00
2019-01-21T04:33:34.768Z,0.00
2019-01-21T04:34:34.940Z,0.00
2019-01-21T04:35:35.112Z,0.00
2019-01-21T04:36:35.291Z,0.00
2019-01-21T04:37:35.465Z,0.00
2019-01-21T04:38:35.636Z,0.00
2019-01-21T04:39:35.831Z,0.00
2019-01-21T04:40:36.004Z,0.00
2019-01-21T04:41:36.184Z,0.00
2019-01-21T04:42:36.360Z,0.00
2019-01-21T04:43:36.528Z,0.00
2019-01-21T04:44:36.712Z,0.00
2019-01-21T04:45:36.880Z,0.00
2019-01-21T04:46:37.049Z,0.00
2019-01-21T04:47:37.229Z,0.00
2019-01-21T04:48:37.405Z,0.00
2019-01-21T04:49:37.574Z,0.00
2019-01-21T04:50:37.749Z,0.00
2019-01-21T04:51:37.924Z,0.00
2019-01-21T04:52:38.093Z,0.00
2019-01-21T04:53:38.263Z,0.00
2019-01-21T04:54:38.441Z,0.00
2019-01-21T04:55:38.615Z,0.00
2019-01-21T04:56:38.799Z,0.00
2019-01-21T04:57:38.975Z,0.00
2019-01-21T04:58:39.155Z,0.00
2019-01-21T04:59:39.325Z,0.00
2019-01-21T05:00:39.502Z,0.00
2019-01-21T05:01:39.678Z,0.00
2019-01-21T05:02:39.852Z,0.00
2019-01-21T05:03:40.023Z,0.00
2019-01-21T05:04:40.202Z,0.00
2019-01-21T05:05:40.374Z,0.00
2019-01-21T05:06:40.573Z,0.00
2019-01-21T05:07:40.727Z,0.00
2019-01-21T05:08:40.901Z,0.00
2019-01-21T05:09:41.067Z,0.00
2019-01-21T05:10:41.244Z,0.00
2019-01-21T05:11:41.419Z,0.00
2019-01-21T05:12:41.592Z,0.00
2019-01-21T05:13:41.769Z,0.00
2019-01-21T05:14:41.943Z,0.00
2019-01-21T05:15:42.107Z,0.00
2019-01-21T05:16:42.293Z,0.00
2019-01-21T05:17:42.461Z,0.00
2019-01-21T05:18:42.636Z,0.00
2019-01-21T05:19:42.818Z,0.00
2019-01-21T05:20:42.992Z,0.00
2019-01-21T05:21:43.161Z,0.00
2019-01-21T05:22:43.340Z,0.00
2019-01-21T05:23:43.509Z,0.00
2019-01-21T05:24:43.687Z,0.00
2019-01-21T05:25:43.855Z,0.00
2019-01-21T05:26:44.032Z,0.00
2019-01-21T05:27:44.209Z,0.00
2019-01-21T05:28:44.378Z,0.00
2019-01-21T05:29:44.560Z,0.00
2019-01-21T05:30:44.725Z,0.00
2019-01-21T05:31:44.887Z,0.00
2019-01-21T05:32:45.055Z,0.00
2019-01-21T05:33:45.229Z,0.00
2019-01-21T05:34:45.413Z,0.00
2019-01-21T05:35:45.582Z,0.00
2019-01-21T05:36:45.752Z,0.00
2019-01-21T05:37:45.927Z,0.00
2019-01-21T05:38:46.115Z,0.00
2019-01-21T05:39:46.280Z,0.00
2019-01-21T05:40:46.440Z,0.00
2019-01-21T05:41:46.618Z,0.00
2019-01-21T05:42:46.794Z,0.00
2019-01-21T05:43:46.964Z,0.00
2019-01-21T05:44:47.146Z,0.00
2019-01-21T05:45:47.320Z,0.00
2019-01-21T05:46:47.498Z,0.00
2019-01-21T05:47:47.674Z,0.00
2019-01-21T05:48:48.975Z,0.00
2019-01-21T05:49:48.033Z,0.00
2019-01-21T05:50:48.209Z,0.00
2019-01-21T05:51:48.409Z,0.00
2019-01-21T05:52:48.552Z,0.00
2019-01-21T05:53:48.726Z,0.00
2019-01-21T05:54:48.899Z,0.00
2019-01-21T05:55:49.072Z,0.00
2019-01-21T05:56:49.245Z,0.00
2019-01-21T05:57:49.423Z,0.00
2019-01-21T05:58:49.602Z,0.00
2019-01-21T05:59:49.783Z,0.00
2019-01-21T06:00:49.952Z,0.00
2019-01-21T06:01:50.139Z,0.00
2019-01-21T06:02:50.312Z,0.00
2019-01-21T06:03:50.498Z,0.00
2019-01-21T06:04:50.676Z,0.00
2019-01-21T06:05:50.843Z,0.00
2019-01-21T06:06:51.016Z,0.00
2019-01-21T06:07:51.208Z,0.00
2019-01-21T06:08:51.374Z,0.00
2019-01-21T06:09:51.546Z,0.00
2019-01-21T06:10:51.725Z,0.00
2019-01-21T06:11:51.909Z,0.00
2019-01-21T06:12:52.073Z,0.00
2019-01-21T06:13:52.264Z,0.00
2019-01-21T06:14:52.436Z,0.00
2019-01-21T06:15:52.613Z,0.00
2019-01-21T06:16:52.783Z,0.00
2019-01-21T06:17:52.999Z,0.00
2019-01-21T06:18:57.503Z,0.00
2019-01-21T06:19:53.307Z,0.00
2019-01-21T06:20:53.490Z,0.00
2019-01-21T06:21:53.669Z,0.00
2019-01-21T06:22:53.838Z,0.00
2019-01-21T06:23:54.008Z,0.00
2019-01-21T06:24:54.180Z,0.00
2019-01-21T06:25:54.352Z,0.00
2019-01-21T06:26:54.526Z,0.00
2019-01-21T06:27:54.703Z,0.00
2019-01-21T06:28:54.873Z,0.00
2019-01-21T06:29:55.052Z,0.00
2019-01-21T06:30:55.220Z,0.00
2019-01-21T06:31:55.406Z,0.00
2019-01-21T06:32:55.585Z,0.00
2019-01-21T06:33:55.753Z,0.00
2019-01-21T06:34:55.928Z,0.00
2019-01-21T06:35:56.106Z,0.00
2019-01-21T06:36:56.278Z,0.00
2019-01-21T06:37:56.468Z,0.00
2019-01-21T06:38:56.640Z,0.00
2019-01-21T06:39:56.833Z,0.00
2019-01-21T06:40:57.002Z,0.00
2019-01-21T06:41:57.171Z,0.00
2019-01-21T06:42:57.355Z,0.00
2019-01-21T06:43:57.523Z,0.00
2019-01-21T06:44:57.857Z,0.00
2019-01-21T06:45:57.900Z,0.00
2019-01-21T06:46:58.070Z,0.00
2019-01-21T06:47:58.239Z,0.00
2019-01-21T06:49:04.586Z,0.00
2019-01-21T06:49:58.592Z,0.00
2019-01-21T06:50:58.820Z,0.00
2019-01-21T06:51:58.938Z,0.00
2019-01-21T06:52:59.111Z,0.00
2019-01-21T06:53:59.284Z,0.00
2019-01-21T06:54:59.456Z,0.00
2019-01-21T06:55:59.637Z,0.00
2019-01-21T06:56:59.807Z,0.00
2019-01-21T06:57:59.982Z,0.00
2019-01-21T06:59:00.153Z,0.00
2019-01-21T07:00:00.344Z,0.00
2019-01-21T07:01:00.509Z,0.00
2019-01-21T07:02:00.679Z,0.00
2019-01-21T07:03:00.859Z,0.00
2019-01-21T07:04:01.032Z,0.00
2019-01-21T07:05:01.207Z,0.00
2019-01-21T07:06:01.384Z,5.63
2019-01-21T07:07:01.567Z,5.63
2019-01-21T07:08:01.739Z,5.63
2019-01-21T07:09:01.919Z,5.63
2019-01-21T07:10:02.093Z,5.63
2019-01-21T07:11:02.265Z,5.63
2019-01-21T07:12:02.438Z,5.63
2019-01-21T07:13:02.616Z,5.63
2019-01-21T07:14:02.790Z,5.63
2019-01-21T07:15:02.983Z,11.25
2019-01-21T07:16:03.173Z,11.25
2019-01-21T07:17:03.341Z,11.25
2019-01-21T07:18:03.528Z,11.25
2019-01-21T07:19:03.700Z,11.25
2019-01-21T07:20:03.872Z,11.25
2019-01-21T07:21:04.048Z,11.25
2019-01-21T07:22:04.225Z,16.88
2019-01-21T07:23:04.407Z,16.88
2019-01-21T07:24:04.582Z,16.88
2019-01-21T07:25:04.758Z,16.88
2019-01-21T07:26:04.930Z,22.50
2019-01-21T07:27:05.104Z,22.50
2019-01-21T07:28:05.280Z,22.50
2019-01-21T07:29:05.455Z,22.50
2019-01-21T07:30:05.634Z,28.13
2019-01-21T07:31:05.811Z,28.13
2019-01-21T07:32:06.076Z,28.13
2019-01-21T07:33:06.157Z,33.75
2019-01-21T07:34:06.333Z,33.75
2019-01-21T07:35:06.504Z,33.75
2019-01-21T07:36:06.681Z,39.38
2019-01-21T07:37:06.853Z,39.38
2019-01-21T07:38:07.022Z,39.38
2019-01-21T07:39:07.193Z,39.38
2019-01-21T07:40:07.372Z,45.00
2019-01-21T07:41:07.539Z,45.00
2019-01-21T07:42:07.722Z,45.00
2019-01-21T07:43:07.892Z,45.00
2019-01-21T07:44:08.073Z,45.00
2019-01-21T07:45:08.257Z,50.63
2019-01-21T07:46:08.430Z,50.63
2019-01-21T07:47:08.619Z,50.63
2019-01-21T07:48:08.794Z,56.25
2019-01-21T07:49:08.964Z,56.25
2019-01-21T07:50:09.140Z,56.25
2019-01-21T07:51:09.317Z,61.88
2019-01-21T07:52:09.493Z,61.88
2019-01-21T07:53:09.667Z,61.88
2019-01-21T07:54:09.934Z,67.50
2019-01-21T07:55:09.983Z,67.50
2019-01-21T07:56:10.159Z,73.13
2019-01-21T07:57:10.338Z,73.13
2019-01-21T07:58:10.511Z,78.75
2019-01-21T07:59:10.684Z,78.75
2019-01-21T08:00:10.866Z,78.75
2019-01-21T08:01:11.045Z,78.75
2019-01-21T08:02:11.216Z,78.75
2019-01-21T08:03:11.391Z,78.75
2019-01-21T08:04:11.568Z,78.75
2019-01-21T08:05:11.743Z,84.38
2019-01-21T08:06:11.920Z,90.00
2019-01-21T08:07:12.089Z,95.63
2019-01-21T08:08:12.267Z,95.63
2019-01-21T08:09:12.443Z,95.63
2019-01-21T08:10:12.617Z,101.25
2019-01-21T08:11:12.784Z,101.25
2019-01-21T08:12:12.955Z,101.25
2019-01-21T08:13:13.138Z,106.88
2019-01-21T08:14:13.314Z,106.88
2019-01-21T08:15:13.493Z,112.50
2019-01-21T08:16:13.671Z,112.50
2019-01-21T08:17:13.846Z,112.50
2019-01-21T08:18:14.022Z,112.50
2019-01-21T08:19:14.197Z,112.50
2019-01-21T08:20:14.374Z,118.13
2019-01-21T08:21:14.547Z,118.13
2019-01-21T08:22:14.737Z,123.75
2019-01-21T08:23:14.897Z,123.75
2019-01-21T08:24:15.080Z,135.00
2019-01-21T08:25:15.253Z,140.63
2019-01-21T08:26:15.424Z,140.63
2019-01-21T08:27:15.609Z,140.63
2019-01-21T08:28:17.187Z,140.63
2019-01-21T08:29:15.948Z,146.25
2019-01-21T08:30:16.128Z,151.88
2019-01-21T08:31:16.351Z,157.50
2019-01-21T08:32:16.475Z,157.50
2019-01-21T08:33:16.659Z,157.50
2019-01-21T08:34:16.833Z,157.50
2019-01-21T08:35:17.005Z,163.13
2019-01-21T08:36:17.184Z,168.75
2019-01-21T08:37:17.366Z,168.75
2019-01-21T08:38:17.547Z,168.75
2019-01-21T08:39:17.720Z,168.75
2019-01-21T08:40:17.894Z,174.38
2019-01-21T08:41:18.078Z,174.38
2019-01-21T08:42:18.242Z,185.63
2019-01-21T08:43:18.420Z,191.25
2019-01-21T08:44:18.594Z,202.50
2019-01-21T08:45:18.768Z,208.13
2019-01-21T08:46:21.449Z,213.75
2019-01-21T08:47:19.123Z,213.75
2019-01-21T08:48:19.298Z,208.13
2019-01-21T08:49:19.475Z,208.13
2019-01-21T08:50:19.661Z,208.13
2019-01-21T08:51:19.840Z,213.75
2019-01-21T08:52:20.024Z,225.00
2019-01-21T08:53:20.207Z,241.88
2019-01-21T08:54:20.393Z,241.88
2019-01-21T08:55:20.571Z,247.50
2019-01-21T08:56:20.749Z,253.13
2019-01-21T08:57:20.920Z,270.00
2019-01-21T08:58:21.105Z,281.25
2019-01-21T08:59:21.276Z,298.13
2019-01-21T09:00:21.447Z,309.38
2019-01-21T09:01:21.625Z,315.00
2019-01-21T09:02:21.797Z,315.00
2019-01-21T09:03:21.977Z,326.25
2019-01-21T09:04:22.151Z,337.50
2019-01-21T09:05:22.330Z,371.25
2019-01-21T09:06:22.509Z,438.75
2019-01-21T09:07:22.693Z,511.88
2019-01-21T09:08:23.153Z,590.63
2019-01-21T09:09:23.052Z,742.50
2019-01-21T09:10:23.232Z,3465.00
2019-01-21T09:11:23.421Z,3622.50
2019-01-21T09:12:23.597Z,3825.00
2019-01-21T09:13:23.779Z,2880.00
2019-01-21T09:14:23.956Z,3054.38
2019-01-21T09:15:24.135Z,3583.13
2019-01-21T09:16:24.311Z,3611.25
2019-01-21T09:17:24.490Z,3780.00
2019-01-21T09:18:24.671Z,3825.00
2019-01-21T09:19:24.845Z,3836.25
2019-01-21T09:20:25.027Z,3735.00
2019-01-21T09:21:25.208Z,3847.50
2019-01-21T09:22:25.397Z,4044.38
2019-01-21T09:23:25.595Z,4162.50
2019-01-21T09:24:25.780Z,4066.88
2019-01-21T09:25:25.975Z,3976.88
2019-01-21T09:26:26.160Z,4100.63
2019-01-21T09:27:26.352Z,4258.13
2019-01-21T09:28:26.539Z,4089.38
2019-01-21T09:29:26.921Z,4106.25
2019-01-21T09:30:26.928Z,3943.13
2019-01-21T09:31:27.111Z,3836.25
2019-01-21T09:32:27.303Z,3847.50
2019-01-21T09:33:27.486Z,3965.63
2019-01-21T09:34:27.677Z,3864.38
2019-01-21T09:35:27.885Z,3796.88
2019-01-21T09:36:28.058Z,3611.25
2019-01-21T09:37:28.246Z,3796.88
2019-01-21T09:38:28.436Z,3594.38
2019-01-21T09:39:28.628Z,2469.38
2019-01-21T09:40:28.825Z,4246.88
2019-01-21T09:41:29.005Z,3594.38
2019-01-21T09:42:29.197Z,4201.88
2019-01-21T09:43:29.392Z,4584.38
2019-01-21T09:44:29.584Z,4528.13
2019-01-21T09:45:29.774Z,4601.25
2019-01-21T09:46:29.973Z,4353.75
2019-01-21T09:47:30.178Z,4522.50
2019-01-21T09:48:30.367Z,4725.00
2019-01-21T09:49:30.555Z,4685.63
2019-01-21T09:50:30.749Z,4837.50
2019-01-21T09:51:30.948Z,4471.88
2019-01-21T09:52:31.137Z,4725.00
2019-01-21T09:53:31.328Z,4809.38
2019-01-21T09:54:31.529Z,4882.50
2019-01-21T09:55:31.725Z,4747.50
2019-01-21T09:56:31.913Z,4786.88
2019-01-21T09:57:33.412Z,4758.75
2019-01-21T09:58:32.305Z,4741.88
2019-01-21T09:59:32.502Z,4708.13
2019-01-21T10:00:32.695Z,4741.88
2019-01-21T10:01:32.894Z,4663.13
2019-01-21T10:02:33.090Z,4730.63
2019-01-21T10:03:33.283Z,4708.13
2019-01-21T10:04:33.499Z,4730.63
2019-01-21T10:05:33.690Z,4758.75
2019-01-21T10:06:33.882Z,4882.50
2019-01-21T10:07:34.073Z,4820.63
2019-01-21T10:08:34.271Z,4910.63
2019-01-21T10:09:34.460Z,4972.50
2019-01-21T10:10:34.656Z,4955.63
2019-01-21T10:11:34.850Z,5011.88
2019-01-21T10:12:35.043Z,5124.38
2019-01-21T10:13:35.240Z,4983.75
2019-01-21T10:14:35.432Z,5051.25
2019-01-21T10:15:35.625Z,4978.13
2019-01-21T10:16:35.837Z,4955.63
2019-01-21T10:17:36.023Z,4786.88
2019-01-21T10:18:36.222Z,4927.50
2019-01-21T10:19:36.426Z,4815.00
2019-01-21T10:20:36.633Z,4899.38
2019-01-21T10:21:36.836Z,5253.75
2019-01-21T10:22:37.029Z,5405.63
2019-01-21T10:23:37.226Z,5400.00
2019-01-21T10:24:37.434Z,4190.63
2019-01-21T10:25:37.618Z,4303.13
2019-01-21T10:26:37.855Z,4792.50
2019-01-21T10:27:38.067Z,4882.50
2019-01-21T10:28:38.243Z,4815.00
2019-01-21T10:29:38.444Z,4921.88
2019-01-21T10:30:38.640Z,4933.13
2019-01-21T10:31:38.836Z,4865.63
2019-01-21T10:32:39.035Z,4933.13
2019-01-21T10:33:39.232Z,5265.00
2019-01-21T10:34:39.424Z,4741.88
2019-01-21T10:35:39.632Z,5040.00
2019-01-21T10:36:39.829Z,5130.00
2019-01-21T10:37:40.025Z,5180.63
2019-01-21T10:38:40.229Z,5169.38
2019-01-21T10:39:40.426Z,5006.25
2019-01-21T10:40:40.619Z,5023.13
2019-01-21T10:41:40.817Z,5130.00
2019-01-21T10:42:41.040Z,5101.88
2019-01-21T10:43:41.218Z,5152.50
2019-01-21T10:44:41.419Z,5236.88
2019-01-21T10:45:41.613Z,5186.25
2019-01-21T10:46:41.811Z,5152.50
2019-01-21T10:47:42.015Z,5073.75
2019-01-21T10:48:42.218Z,5135.63
2019-01-21T10:49:42.404Z,5203.13
2019-01-21T10:50:42.618Z,5208.75
2019-01-21T10:51:42.814Z,5146.88
2019-01-21T10:52:43.012Z,5073.75
2019-01-21T10:53:43.205Z,5130.00
2019-01-21T10:54:43.405Z,5293.13
2019-01-21T10:55:43.604Z,5349.38
2019-01-21T10:56:43.805Z,5270.63
2019-01-21T10:57:44.010Z,5203.13
2019-01-21T10:58:44.203Z,4966.88
2019-01-21T10:59:44.400Z,4865.63
2019-01-21T11:00:44.599Z,4831.88
2019-01-21T11:01:44.797Z,4663.13
2019-01-21T11:02:44.989Z,4584.38
2019-01-21T11:03:45.183Z,4550.63
2019-01-21T11:04:45.383Z,4561.88
2019-01-21T11:05:45.581Z,4500.00
2019-01-21T11:06:45.777Z,4511.25
2019-01-21T11:07:45.982Z,4550.63
2019-01-21T11:08:46.184Z,4590.00
2019-01-21T11:09:46.380Z,4578.75
2019-01-21T11:10:46.580Z,4578.75
2019-01-21T11:11:46.761Z,4533.75
2019-01-21T11:12:46.957Z,4511.25
2019-01-21T11:13:47.158Z,4455.00
2019-01-21T11:14:47.360Z,4410.00
2019-01-21T11:15:47.553Z,4421.25
2019-01-21T11:16:47.752Z,4460.63
2019-01-21T11:17:47.948Z,4500.00
2019-01-21T11:18:48.148Z,4443.75
2019-01-21T11:19:48.351Z,4376.25
2019-01-21T11:20:48.540Z,4381.88
2019-01-21T11:21:48.734Z,4426.88
2019-01-21T11:22:48.929Z,4460.63
2019-01-21T11:23:49.123Z,4387.50
2019-01-21T11:24:49.319Z,4269.38
2019-01-21T11:25:49.537Z,4156.88
2019-01-21T11:26:49.733Z,4140.00
2019-01-21T11:27:49.937Z,4100.63
2019-01-21T11:28:50.143Z,4156.88
2019-01-21T11:29:50.346Z,4145.63
2019-01-21T11:30:50.538Z,4151.25
2019-01-21T11:31:50.736Z,4201.88
2019-01-21T11:32:50.933Z,4185.00
2019-01-21T11:33:51.129Z,4179.38
2019-01-21T11:34:51.327Z,4123.13
2019-01-21T11:35:51.520Z,4016.25
2019-01-21T11:36:51.724Z,3993.75
2019-01-21T11:37:51.919Z,4038.75
2019-01-21T11:38:52.111Z,4050.00
2019-01-21T11:39:52.308Z,4010.63
2019-01-21T11:40:52.500Z,4005.00
2019-01-21T11:41:52.693Z,3960.00
2019-01-21T11:42:52.898Z,4021.88
2019-01-21T11:43:53.097Z,4005.00
2019-01-21T11:44:53.292Z,3971.25
2019-01-21T11:45:53.485Z,3971.25
2019-01-21T11:46:53.697Z,3954.38
2019-01-21T11:47:53.892Z,3965.63
2019-01-21T11:48:54.090Z,3948.75
2019-01-21T11:49:54.289Z,3926.25
2019-01-21T11:50:54.477Z,3864.38
2019-01-21T11:51:54.713Z,3768.75
2019-01-21T11:52:54.876Z,3780.00
2019-01-21T11:53:55.071Z,3813.75
2019-01-21T11:54:55.268Z,3796.88
2019-01-21T11:55:55.458Z,3780.00
2019-01-21T11:56:55.656Z,3723.75
2019-01-21T11:57:55.845Z,3695.63
2019-01-21T11:58:56.043Z,3656.25
2019-01-21T11:59:56.247Z,3611.25
2019-01-21T12:00:56.427Z,3588.75
2019-01-21T12:01:56.632Z,3532.50
2019-01-21T12:02:56.834Z,3521.25
2019-01-21T12:03:57.021Z,3521.25
2019-01-21T12:04:57.214Z,3498.75
2019-01-21T12:05:57.410Z,3498.75
2019-01-21T12:06:57.599Z,3493.13
2019-01-21T12:07:57.795Z,3442.50
2019-01-21T12:08:57.989Z,3470.63
2019-01-21T12:09:58.183Z,3448.13
2019-01-21T12:10:58.375Z,3425.63
2019-01-21T12:11:58.579Z,3425.63
2019-01-21T12:12:58.769Z,3380.63
2019-01-21T12:13:58.966Z,3318.75
2019-01-21T12:14:59.157Z,3273.75
2019-01-21T12:15:59.347Z,3217.50
2019-01-21T12:16:59.546Z,3172.50
2019-01-21T12:17:59.726Z,3166.88
2019-01-21T12:18:59.911Z,3110.63
2019-01-21T12:20:00.190Z,3088.13
2019-01-21T12:21:00.297Z,3065.63
2019-01-21T12:22:00.491Z,3026.25
2019-01-21T12:23:00.681Z,3015.00
2019-01-21T12:24:00.873Z,3015.00
2019-01-21T12:25:01.056Z,3026.25
2019-01-21T12:26:01.245Z,3003.75
2019-01-21T12:27:01.439Z,2981.25
2019-01-21T12:28:01.626Z,2936.25
2019-01-21T12:29:02.043Z,2885.63
2019-01-21T12:30:02.006Z,2891.25
2019-01-21T12:31:02.185Z,2874.38
2019-01-21T12:32:02.377Z,2857.50
2019-01-21T12:33:02.568Z,2823.75
2019-01-21T12:34:02.761Z,2784.38
2019-01-21T12:35:02.948Z,2761.88
2019-01-21T12:36:03.137Z,2728.13
2019-01-21T12:37:03.335Z,2705.63
2019-01-21T12:38:03.520Z,2638.13
2019-01-21T12:39:03.714Z,2643.75
2019-01-21T12:40:03.911Z,2610.00
2019-01-21T12:41:04.093Z,2581.88
2019-01-21T12:42:04.277Z,2559.38
2019-01-21T12:43:04.462Z,2576.25
2019-01-21T12:44:04.652Z,2536.88
2019-01-21T12:45:04.839Z,2491.88
2019-01-21T12:46:05.028Z,2435.63
2019-01-21T12:47:05.219Z,2401.88
2019-01-21T12:48:05.410Z,2362.50
2019-01-21T12:49:05.604Z,2340.00
2019-01-21T12:50:05.791Z,2306.25
2019-01-21T12:51:05.974Z,2289.38
2019-01-21T12:52:06.167Z,2216.25
2019-01-21T12:53:06.369Z,2126.25